sensor_id;sensor_type;location;lat;lon;timestamp;pressure;altitude;pressure_sealevel;temperature;humidity
25610;BME280;13479;49.044;8.716;2024-03-22T05:01:24;99447.38;;;8.38;78.43
25610;BME280;13479;49.044;8.716;2024-03-22T05:03:50;99441.56;;;8.46;79.17
25610;BME280;13479;49.044;8.716;2024-03-22T05:06:15;99441.34;;;8.36;79.65
25610;BME280;13479;49.044;8.716;2024-03-22T05:08:40;99446.44;;;8.26;79.84
25610;BME280;13479;49.044;8.716;2024-03-22T05:11:07;99461.47;;;8.26;80.64
25610;BME280;13479;49.044;8.716;2024-03-22T05:13:32;99468.56;;;8.25;80.63
25610;BME280;13479;49.044;8.716;2024-03-22T05:15:57;99490.56;;;8.26;81.05
25610;BME280;13479;49.044;8.716;2024-03-22T05:18:22;99483.50;;;8.26;80.98
25610;BME280;13479;49.044;8.716;2024-03-22T05:20:48;99480.41;;;8.07;81.22
25610;BME280;13479;49.044;8.716;2024-03-22T05:23:13;99485.06;;;8.03;81.54
25610;BME280;13479;49.044;8.716;2024-03-22T05:25:38;99497.22;;;8.06;81.69
25610;BME280;13479;49.044;8.716;2024-03-22T05:28:04;99507.50;;;8.23;81.22
25610;BME280;13479;49.044;8.716;2024-03-22T05:30:29;99528.78;;;8.22;81.07
25610;BME280;13479;49.044;8.716;2024-03-22T05:32:54;99526.72;;;8.12;81.04
25610;BME280;13479;49.044;8.716;2024-03-22T05:35:19;99509.28;;;8.10;81.57
25610;BME280;13479;49.044;8.716;2024-03-22T05:37:45;99495.75;;;8.27;81.14
25610;BME280;13479;49.044;8.716;2024-03-22T05:40:11;99534.94;;;8.48;80.52
25610;BME280;13479;49.044;8.716;2024-03-22T05:42:36;99572.19;;;8.58;79.47
25610;BME280;13479;49.044;8.716;2024-03-22T05:45:02;99581.00;;;8.58;79.71
25610;BME280;13479;49.044;8.716;2024-03-22T05:47:27;99570.81;;;8.52;80.06
25610;BME280;13479;49.044;8.716;2024-03-22T05:49:53;99552.28;;;8.52;80.13
25610;BME280;13479;49.044;8.716;2024-03-22T05:52:18;99532.19;;;8.49;80.58
25610;BME280;13479;49.044;8.716;2024-03-22T05:54:43;99502.00;;;8.52;81.05
25610;BME280;13479;49.044;8.716;2024-03-22T05:57:09;99508.44;;;8.74;80.54
25610;BME280;13479;49.044;8.716;2024-03-22T05:59:34;99564.88;;;9.00;79.08
25610;BME280;13479;49.044;8.716;2024-03-22T06:02:00;99621.94;;;9.17;77.86
25610;BME280;13479;49.044;8.716;2024-03-22T06:04:26;99643.44;;;9.25;77.06
25610;BME280;13479;49.044;8.716;2024-03-22T06:06:51;99641.38;;;9.42;76.56
25610;BME280;13479;49.044;8.716;2024-03-22T06:09:16;99649.06;;;9.58;75.81
25610;BME280;13479;49.044;8.716;2024-03-22T06:11:49;99651.13;;;9.79;75.62
25610;BME280;13479;49.044;8.716;2024-03-22T06:14:15;99622.91;;;10.02;75.62
25610;BME280;13479;49.044;8.716;2024-03-22T06:16:40;99614.25;;;10.35;75.21
25610;BME280;13479;49.044;8.716;2024-03-22T06:19:05;99632.44;;;10.76;74.38
25610;BME280;13479;49.044;8.716;2024-03-22T06:21:31;99645.53;;;11.13;73.15
25610;BME280;13479;49.044;8.716;2024-03-22T06:23:56;99662.25;;;11.70;71.61
25610;BME280;13479;49.044;8.716;2024-03-22T06:26:21;99654.31;;;12.78;69.32
25610;BME280;13479;49.044;8.716;2024-03-22T06:28:46;99615.13;;;13.62;65.02
25610;BME280;13479;49.044;8.716;2024-03-22T06:31:12;99538.88;;;15.03;59.78
25610;BME280;13479;49.044;8.716;2024-03-22T06:33:37;99498.19;;;16.18;58.47
25610;BME280;13479;49.044;8.716;2024-03-22T06:36:02;99465.19;;;17.29;50.80
25610;BME280;13479;49.044;8.716;2024-03-22T06:38:28;99465.53;;;18.26;47.26
25610;BME280;13479;49.044;8.716;2024-03-22T06:40:53;99480.44;;;18.93;45.38
25610;BME280;13479;49.044;8.716;2024-03-22T06:43:18;99490.09;;;19.65;43.28
25610;BME280;13479;49.044;8.716;2024-03-22T06:45:44;99497.47;;;20.33;42.11
25610;BME280;13479;49.044;8.716;2024-03-22T06:48:09;99499.78;;;20.96;40.74
25610;BME280;13479;49.044;8.716;2024-03-22T06:50:34;99514.47;;;21.45;38.97
25610;BME280;13479;49.044;8.716;2024-03-22T06:52:59;99522.16;;;21.85;38.42
25610;BME280;13479;49.044;8.716;2024-03-22T06:55:25;99521.06;;;22.23;37.15
25610;BME280;13479;49.044;8.716;2024-03-22T06:57:50;99529.13;;;22.44;36.64
25610;BME280;13479;49.044;8.716;2024-03-22T07:00:17;99530.75;;;22.67;36.12
25610;BME280;13479;49.044;8.716;2024-03-22T07:02:42;99532.72;;;23.28;35.72
25610;BME280;13479;49.044;8.716;2024-03-22T07:05:08;99536.00;;;24.40;34.32
25610;BME280;13479;49.044;8.716;2024-03-22T07:07:35;99522.47;;;25.57;32.54
25610;BME280;13479;49.044;8.716;2024-03-22T07:10:00;99525.44;;;26.57;30.60
25610;BME280;13479;49.044;8.716;2024-03-22T07:12:25;99525.47;;;27.43;29.48
25610;BME280;13479;49.044;8.716;2024-03-22T07:14:51;99526.09;;;27.88;28.35
25610;BME280;13479;49.044;8.716;2024-03-22T07:17:16;99547.78;;;28.49;28.46
25610;BME280;13479;49.044;8.716;2024-03-22T07:19:41;99527.06;;;29.01;26.65
25610;BME280;13479;49.044;8.716;2024-03-22T07:22:07;99535.69;;;27.79;27.74
25610;BME280;13479;49.044;8.716;2024-03-22T07:24:33;99538.03;;;26.33;29.59
25610;BME280;13479;49.044;8.716;2024-03-22T07:26:58;99531.59;;;25.31;30.95
25610;BME280;13479;49.044;8.716;2024-03-22T07:29:23;99518.75;;;25.00;31.78
25610;BME280;13479;49.044;8.716;2024-03-22T07:31:48;99516.28;;;25.75;31.54
25610;BME280;13479;49.044;8.716;2024-03-22T07:34:14;99500.13;;;26.94;30.24
25610;BME280;13479;49.044;8.716;2024-03-22T07:36:39;99504.56;;;28.22;28.74
25610;BME280;13479;49.044;8.716;2024-03-22T07:39:05;99512.47;;;29.65;27.51
25610;BME280;13479;49.044;8.716;2024-03-22T07:41:33;99515.69;;;31.08;25.28
25610;BME280;13479;49.044;8.716;2024-03-22T07:43:59;99512.66;;;31.82;24.32
25610;BME280;13479;49.044;8.716;2024-03-22T07:46:26;99526.81;;;32.39;23.57
25610;BME280;13479;49.044;8.716;2024-03-22T07:48:51;99525.53;;;33.00;22.65
25610;BME280;13479;49.044;8.716;2024-03-22T07:51:16;99525.16;;;33.75;22.23
25610;BME280;13479;49.044;8.716;2024-03-22T07:53:41;99530.69;;;34.37;21.64
25610;BME280;13479;49.044;8.716;2024-03-22T07:56:07;99523.50;;;34.57;20.79
25610;BME280;13479;49.044;8.716;2024-03-22T07:58:32;99533.53;;;35.03;21.10
25610;BME280;13479;49.044;8.716;2024-03-22T08:00:57;99530.53;;;35.54;20.45
25610;BME280;13479;49.044;8.716;2024-03-22T08:03:22;99515.97;;;35.38;19.93
25610;BME280;13479;49.044;8.716;2024-03-22T08:05:48;99518.66;;;35.54;20.43
25610;BME280;13479;49.044;8.716;2024-03-22T08:08:14;99516.63;;;36.05;19.95
25610;BME280;13479;49.044;8.716;2024-03-22T08:10:39;99513.06;;;36.82;19.02
25610;BME280;13479;49.044;8.716;2024-03-22T08:13:04;99510.22;;;37.31;18.56
25610;BME280;13479;49.044;8.716;2024-03-22T08:15:30;99510.50;;;38.20;18.20
25610;BME280;13479;49.044;8.716;2024-03-22T08:17:55;99508.59;;;38.90;17.06
25610;BME280;13479;49.044;8.716;2024-03-22T08:20:23;99505.41;;;38.69;17.23
25610;BME280;13479;49.044;8.716;2024-03-22T08:22:48;99505.91;;;38.99;16.84
25610;BME280;13479;49.044;8.716;2024-03-22T08:25:13;99506.44;;;38.73;17.05
25610;BME280;13479;49.044;8.716;2024-03-22T08:27:42;99512.19;;;38.49;17.66
25610;BME280;13479;49.044;8.716;2024-03-22T08:30:08;99508.50;;;38.06;17.39
25610;BME280;13479;49.044;8.716;2024-03-22T08:32:34;99504.97;;;37.67;17.93
25610;BME280;13479;49.044;8.716;2024-03-22T08:35:00;99498.34;;;37.49;18.41
25610;BME280;13479;49.044;8.716;2024-03-22T08:37:25;99497.91;;;37.42;18.46
25610;BME280;13479;49.044;8.716;2024-03-22T08:39:51;99488.00;;;36.73;18.46
25610;BME280;13479;49.044;8.716;2024-03-22T08:42:16;99497.22;;;36.10;18.92
25610;BME280;13479;49.044;8.716;2024-03-22T08:44:41;99487.25;;;35.45;19.42
25610;BME280;13479;49.044;8.716;2024-03-22T08:47:07;99476.63;;;35.97;19.45
25610;BME280;13479;49.044;8.716;2024-03-22T08:49:33;99464.38;;;36.32;19.07
25610;BME280;13479;49.044;8.716;2024-03-22T08:51:58;99462.69;;;36.85;18.76
25610;BME280;13479;49.044;8.716;2024-03-22T08:54:23;99459.63;;;37.63;18.83
25610;BME280;13479;49.044;8.716;2024-03-22T08:56:48;99458.13;;;38.32;17.30
25610;BME280;13479;49.044;8.716;2024-03-22T08:59:14;99473.59;;;39.17;16.88
25610;BME280;13479;49.044;8.716;2024-03-22T09:01:39;99475.28;;;39.86;16.35
25610;BME280;13479;49.044;8.716;2024-03-22T09:04:04;99470.19;;;39.79;16.51
25610;BME280;13479;49.044;8.716;2024-03-22T09:06:29;99472.06;;;39.70;15.88
25610;BME280;13479;49.044;8.716;2024-03-22T09:08:55;99471.28;;;38.68;16.83
25610;BME280;13479;49.044;8.716;2024-03-22T09:11:23;99466.16;;;37.86;17.29
25610;BME280;13479;49.044;8.716;2024-03-22T09:13:51;99459.59;;;36.87;18.13
25610;BME280;13479;49.044;8.716;2024-03-22T09:16:16;99455.13;;;35.94;19.18
25610;BME280;13479;49.044;8.716;2024-03-22T09:18:42;99446.06;;;35.08;19.62
25610;BME280;13479;49.044;8.716;2024-03-22T09:21:07;99434.84;;;34.08;20.14
25610;BME280;13479;49.044;8.716;2024-03-22T09:23:34;99423.75;;;32.94;21.72
25610;BME280;13479;49.044;8.716;2024-03-22T09:25:59;99415.94;;;32.60;22.19
25610;BME280;13479;49.044;8.716;2024-03-22T09:28:24;99405.47;;;32.52;21.92
25610;BME280;13479;49.044;8.716;2024-03-22T09:30:49;99395.69;;;32.18;22.98
25610;BME280;13479;49.044;8.716;2024-03-22T09:33:14;99386.38;;;31.77;23.47
25610;BME280;13479;49.044;8.716;2024-03-22T09:35:40;99384.63;;;31.33;24.06
25610;BME280;13479;49.044;8.716;2024-03-22T09:38:05;99373.84;;;30.49;24.14
25610;BME280;13479;49.044;8.716;2024-03-22T09:40:31;99362.16;;;29.75;24.92
25610;BME280;13479;49.044;8.716;2024-03-22T09:43:01;99360.38;;;29.01;26.81
25610;BME280;13479;49.044;8.716;2024-03-22T09:45:31;99360.28;;;28.14;27.53
25610;BME280;13479;49.044;8.716;2024-03-22T09:47:56;99374.53;;;27.56;30.56
25610;BME280;13479;49.044;8.716;2024-03-22T09:50:22;99377.03;;;27.16;31.19
25610;BME280;13479;49.044;8.716;2024-03-22T09:52:48;99354.53;;;26.41;32.30
25610;BME280;13479;49.044;8.716;2024-03-22T09:55:13;99354.88;;;25.88;32.10
25610;BME280;13479;49.044;8.716;2024-03-22T09:57:39;99336.31;;;25.09;31.46
25610;BME280;13479;49.044;8.716;2024-03-22T10:00:06;99320.88;;;24.64;32.35
25610;BME280;13479;49.044;8.716;2024-03-22T10:02:33;99332.44;;;24.53;32.86
25610;BME280;13479;49.044;8.716;2024-03-22T10:04:58;99318.81;;;24.14;32.85
25610;BME280;13479;49.044;8.716;2024-03-22T10:07:25;99309.66;;;24.09;33.10
25610;BME280;13479;49.044;8.716;2024-03-22T10:09:51;99312.41;;;23.82;33.86
25610;BME280;13479;49.044;8.716;2024-03-22T10:12:17;99310.16;;;23.72;34.20
25610;BME280;13479;49.044;8.716;2024-03-22T10:14:43;99295.81;;;23.51;34.82
25610;BME280;13479;49.044;8.716;2024-03-22T10:17:09;99298.31;;;23.46;34.06
25610;BME280;13479;49.044;8.716;2024-03-22T10:19:35;99291.38;;;22.83;35.32
25610;BME280;13479;49.044;8.716;2024-03-22T10:22:02;99280.34;;;22.78;36.11
25610;BME280;13479;49.044;8.716;2024-03-22T10:24:28;99285.72;;;22.71;35.89
25610;BME280;13479;49.044;8.716;2024-03-22T10:26:54;99279.50;;;22.77;35.87
25610;BME280;13479;49.044;8.716;2024-03-22T10:29:20;99271.19;;;22.86;36.35
25610;BME280;13479;49.044;8.716;2024-03-22T10:31:45;99266.63;;;22.79;36.21
25610;BME280;13479;49.044;8.716;2024-03-22T10:34:13;99257.44;;;22.80;35.98
25610;BME280;13479;49.044;8.716;2024-03-22T10:36:39;99250.38;;;22.99;36.13
25610;BME280;13479;49.044;8.716;2024-03-22T10:39:05;99236.84;;;23.06;35.99
25610;BME280;13479;49.044;8.716;2024-03-22T10:41:32;99233.31;;;23.12;35.59
25610;BME280;13479;49.044;8.716;2024-03-22T10:43:57;99234.53;;;23.17;35.36
25610;BME280;13479;49.044;8.716;2024-03-22T10:46:29;99217.03;;;23.39;35.68
25610;BME280;13479;49.044;8.716;2024-03-22T10:48:54;99217.88;;;23.47;35.26
25610;BME280;13479;49.044;8.716;2024-03-22T10:51:20;99216.41;;;23.44;35.08
25610;BME280;13479;49.044;8.716;2024-03-22T10:53:46;99218.53;;;23.94;35.23
25610;BME280;13479;49.044;8.716;2024-03-22T10:56:12;99212.25;;;24.07;33.69
25610;BME280;13479;49.044;8.716;2024-03-22T10:58:41;99220.13;;;24.15;32.78
25610;BME280;13479;49.044;8.716;2024-03-22T11:01:21;99224.53;;;24.16;32.12
25610;BME280;13479;49.044;8.716;2024-03-22T11:03:47;99226.28;;;24.36;33.14
25610;BME280;13479;49.044;8.716;2024-03-22T11:06:12;99224.53;;;24.48;32.72
25610;BME280;13479;49.044;8.716;2024-03-22T11:08:38;99221.94;;;24.28;31.96
25610;BME280;13479;49.044;8.716;2024-03-22T11:11:10;99224.28;;;24.18;31.91
25610;BME280;13479;49.044;8.716;2024-03-22T11:13:36;99215.19;;;23.99;32.51
25610;BME280;13479;49.044;8.716;2024-03-22T11:16:02;99218.13;;;23.97;33.03
25610;BME280;13479;49.044;8.716;2024-03-22T11:18:27;99211.72;;;23.78;33.04
25610;BME280;13479;49.044;8.716;2024-03-22T11:20:52;99204.03;;;23.75;33.48
25610;BME280;13479;49.044;8.716;2024-03-22T11:23:18;99187.50;;;23.90;32.96
25610;BME280;13479;49.044;8.716;2024-03-22T11:25:43;99185.19;;;23.87;32.94
25610;BME280;13479;49.044;8.716;2024-03-22T11:28:10;99183.78;;;23.78;33.12
25610;BME280;13479;49.044;8.716;2024-03-22T11:30:35;99175.25;;;23.74;33.01
25610;BME280;13479;49.044;8.716;2024-03-22T11:33:01;99172.47;;;23.87;32.81
25610;BME280;13479;49.044;8.716;2024-03-22T11:35:27;99163.09;;;23.90;33.39
25610;BME280;13479;49.044;8.716;2024-03-22T11:37:52;99160.00;;;23.80;33.60
25610;BME280;13479;49.044;8.716;2024-03-22T11:40:18;99161.97;;;24.04;32.87
25610;BME280;13479;49.044;8.716;2024-03-22T11:42:49;99155.88;;;24.16;32.19
25610;BME280;13479;49.044;8.716;2024-03-22T11:45:17;99160.41;;;24.29;31.84
25610;BME280;13479;49.044;8.716;2024-03-22T11:47:44;99153.00;;;24.11;33.00
25610;BME280;13479;49.044;8.716;2024-03-22T11:50:11;99157.06;;;24.27;31.57
25610;BME280;13479;49.044;8.716;2024-03-22T11:52:40;99145.03;;;24.16;30.24
25610;BME280;13479;49.044;8.716;2024-03-22T11:55:05;99144.84;;;24.11;29.86
25610;BME280;13479;49.044;8.716;2024-03-22T11:57:31;99139.69;;;24.34;29.35
25610;BME280;13479;49.044;8.716;2024-03-22T12:00:00;99143.63;;;24.39;29.04
25610;BME280;13479;49.044;8.716;2024-03-22T12:02:26;99144.06;;;24.35;29.93
25610;BME280;13479;49.044;8.716;2024-03-22T12:04:51;99147.91;;;24.21;29.58
25610;BME280;13479;49.044;8.716;2024-03-22T12:07:17;99138.16;;;24.13;29.77
25610;BME280;13479;49.044;8.716;2024-03-22T12:09:45;99143.00;;;24.04;29.80
25610;BME280;13479;49.044;8.716;2024-03-22T12:12:11;99133.47;;;23.95;30.43
25610;BME280;13479;49.044;8.716;2024-03-22T12:14:37;99133.28;;;23.90;30.17
25610;BME280;13479;49.044;8.716;2024-03-22T12:17:04;99132.22;;;23.91;30.58
25610;BME280;13479;49.044;8.716;2024-03-22T12:19:29;99128.91;;;23.89;29.82
25610;BME280;13479;49.044;8.716;2024-03-22T12:21:54;99117.78;;;24.04;30.08
25610;BME280;13479;49.044;8.716;2024-03-22T12:24:21;99117.97;;;24.09;29.84
25610;BME280;13479;49.044;8.716;2024-03-22T12:26:46;99110.91;;;24.33;29.86
25610;BME280;13479;49.044;8.716;2024-03-22T12:29:12;99106.75;;;24.31;29.61
25610;BME280;13479;49.044;8.716;2024-03-22T12:31:38;99105.81;;;24.44;28.90
25610;BME280;13479;49.044;8.716;2024-03-22T12:34:03;99095.69;;;24.32;29.18
25610;BME280;13479;49.044;8.716;2024-03-22T12:36:29;99101.72;;;24.60;29.47
25610;BME280;13479;49.044;8.716;2024-03-22T12:38:54;99100.53;;;24.49;29.68
25610;BME280;13479;49.044;8.716;2024-03-22T12:41:19;99093.81;;;24.58;30.02
25610;BME280;13479;49.044;8.716;2024-03-22T12:43:44;99091.63;;;24.67;29.68
25610;BME280;13479;49.044;8.716;2024-03-22T12:46:10;99096.34;;;24.53;29.28
25610;BME280;13479;49.044;8.716;2024-03-22T12:48:35;99094.84;;;24.32;30.37
25610;BME280;13479;49.044;8.716;2024-03-22T12:51:01;99092.09;;;24.06;29.75
25610;BME280;13479;49.044;8.716;2024-03-22T12:53:26;99087.56;;;24.00;30.33
25610;BME280;13479;49.044;8.716;2024-03-22T12:55:51;99081.28;;;23.61;30.10
25610;BME280;13479;49.044;8.716;2024-03-22T12:58:17;99071.22;;;23.29;30.66
25610;BME280;13479;49.044;8.716;2024-03-22T13:00:42;99057.59;;;23.43;31.06
25610;BME280;13479;49.044;8.716;2024-03-22T13:03:07;99052.47;;;23.28;31.19
25610;BME280;13479;49.044;8.716;2024-03-22T13:05:33;99042.88;;;23.32;31.64
25610;BME280;13479;49.044;8.716;2024-03-22T13:07:58;99036.16;;;23.41;31.78
25610;BME280;13479;49.044;8.716;2024-03-22T13:10:23;99035.34;;;23.41;31.97
25610;BME280;13479;49.044;8.716;2024-03-22T13:12:48;99022.03;;;23.33;32.41
25610;BME280;13479;49.044;8.716;2024-03-22T13:15:14;99014.09;;;23.38;32.33
25610;BME280;13479;49.044;8.716;2024-03-22T13:17:39;99013.44;;;23.42;32.16
25610;BME280;13479;49.044;8.716;2024-03-22T13:20:05;99004.91;;;23.46;32.32
25610;BME280;13479;49.044;8.716;2024-03-22T13:22:37;99003.66;;;23.41;31.64
25610;BME280;13479;49.044;8.716;2024-03-22T13:25:03;99005.63;;;23.21;31.05
25610;BME280;13479;49.044;8.716;2024-03-22T13:27:32;99001.66;;;23.17;31.40
25610;BME280;13479;49.044;8.716;2024-03-22T13:29:57;99003.38;;;23.04;31.98
25610;BME280;13479;49.044;8.716;2024-03-22T13:32:22;98996.97;;;22.92;32.02
25610;BME280;13479;49.044;8.716;2024-03-22T13:34:48;98998.63;;;22.93;31.98
25610;BME280;13479;49.044;8.716;2024-03-22T13:37:13;98990.94;;;22.90;31.80
25610;BME280;13479;49.044;8.716;2024-03-22T13:39:38;98984.66;;;22.96;32.04
25610;BME280;13479;49.044;8.716;2024-03-22T13:42:04;98974.22;;;23.06;32.03
25610;BME280;13479;49.044;8.716;2024-03-22T13:44:32;98971.56;;;22.93;31.65
25610;BME280;13479;49.044;8.716;2024-03-22T13:46:57;98969.72;;;22.87;31.32
25610;BME280;13479;49.044;8.716;2024-03-22T13:49:23;98980.63;;;22.60;31.59
25610;BME280;13479;49.044;8.716;2024-03-22T13:51:49;98963.19;;;22.42;32.06
25610;BME280;13479;49.044;8.716;2024-03-22T13:54:14;98956.91;;;22.35;32.42
25610;BME280;13479;49.044;8.716;2024-03-22T13:56:40;98947.81;;;22.09;32.76
25610;BME280;13479;49.044;8.716;2024-03-22T13:59:05;98936.16;;;22.15;32.58
25610;BME280;13479;49.044;8.716;2024-03-22T14:01:32;98938.03;;;21.88;32.88
25610;BME280;13479;49.044;8.716;2024-03-22T14:03:57;98930.38;;;21.78;34.15
25610;BME280;13479;49.044;8.716;2024-03-22T14:06:22;98924.50;;;21.54;33.33
25610;BME280;13479;49.044;8.716;2024-03-22T14:08:47;98916.19;;;21.49;33.91
25610;BME280;13479;49.044;8.716;2024-03-22T14:11:13;98918.44;;;21.32;34.57
25610;BME280;13479;49.044;8.716;2024-03-22T14:13:38;98911.56;;;21.16;34.58
25610;BME280;13479;49.044;8.716;2024-03-22T14:16:03;98908.66;;;21.11;34.95
25610;BME280;13479;49.044;8.716;2024-03-22T14:18:28;98903.69;;;21.21;34.43
25610;BME280;13479;49.044;8.716;2024-03-22T14:20:54;98895.75;;;21.06;35.71
25610;BME280;13479;49.044;8.716;2024-03-22T14:23:19;98885.38;;;21.03;34.92
25610;BME280;13479;49.044;8.716;2024-03-22T14:25:44;98873.09;;;21.01;34.69
25610;BME280;13479;49.044;8.716;2024-03-22T14:28:11;98875.38;;;20.97;35.60
25610;BME280;13479;49.044;8.716;2024-03-22T14:30:37;98868.75;;;20.93;35.86
25610;BME280;13479;49.044;8.716;2024-03-22T14:33:02;98867.47;;;20.82;36.07
25610;BME280;13479;49.044;8.716;2024-03-22T14:35:29;98865.59;;;20.89;35.94
25610;BME280;13479;49.044;8.716;2024-03-22T14:37:55;98857.50;;;20.82;36.38
25610;BME280;13479;49.044;8.716;2024-03-22T14:40:20;98855.94;;;20.66;36.35
25610;BME280;13479;49.044;8.716;2024-03-22T14:42:45;98841.66;;;20.73;36.68
25610;BME280;13479;49.044;8.716;2024-03-22T14:45:10;98840.41;;;20.68;37.04
25610;BME280;13479;49.044;8.716;2024-03-22T14:47:36;98840.81;;;20.72;37.01
25610;BME280;13479;49.044;8.716;2024-03-22T14:50:02;98838.97;;;20.73;36.10
25610;BME280;13479;49.044;8.716;2024-03-22T14:52:28;98835.16;;;20.53;37.01
25610;BME280;13479;49.044;8.716;2024-03-22T14:54:53;98827.06;;;20.47;37.08
25610;BME280;13479;49.044;8.716;2024-03-22T14:57:18;98816.66;;;20.44;37.32
25610;BME280;13479;49.044;8.716;2024-03-22T14:59:44;98809.25;;;20.52;37.12
25610;BME280;13479;49.044;8.716;2024-03-22T15:02:09;98804.06;;;20.51;36.81
25610;BME280;13479;49.044;8.716;2024-03-22T15:04:35;98804.69;;;20.53;36.95
25610;BME280;13479;49.044;8.716;2024-03-22T15:07:00;98799.31;;;20.53;37.14
25610;BME280;13479;49.044;8.716;2024-03-22T15:09:26;98797.66;;;20.59;36.75
25610;BME280;13479;49.044;8.716;2024-03-22T15:11:52;98793.03;;;20.46;37.24
25610;BME280;13479;49.044;8.716;2024-03-22T15:14:19;98790.31;;;20.39;37.30
25610;BME280;13479;49.044;8.716;2024-03-22T15:16:46;98782.19;;;20.32;37.65
25610;BME280;13479;49.044;8.716;2024-03-22T15:19:12;98784.44;;;20.22;38.03
25610;BME280;13479;49.044;8.716;2024-03-22T15:21:37;98779.06;;;20.22;38.03
25610;BME280;13479;49.044;8.716;2024-03-22T15:24:03;98764.13;;;20.19;38.06
25610;BME280;13479;49.044;8.716;2024-03-22T15:26:28;98762.88;;;20.22;37.94
25610;BME280;13479;49.044;8.716;2024-03-22T15:28:53;98760.03;;;20.30;37.99
25610;BME280;13479;49.044;8.716;2024-03-22T15:31:19;98754.19;;;20.20;37.87
25610;BME280;13479;49.044;8.716;2024-03-22T15:33:44;98754.38;;;20.18;38.36
25610;BME280;13479;49.044;8.716;2024-03-22T15:36:09;98758.50;;;20.08;39.34
25610;BME280;13479;49.044;8.716;2024-03-22T15:38:35;98760.50;;;19.99;39.17
25610;BME280;13479;49.044;8.716;2024-03-22T15:41:00;98761.34;;;19.99;39.13
25610;BME280;13479;49.044;8.716;2024-03-22T15:43:25;98759.94;;;20.10;40.13
25610;BME280;13479;49.044;8.716;2024-03-22T15:45:50;98750.78;;;20.04;39.53
25610;BME280;13479;49.044;8.716;2024-03-22T15:48:16;98741.69;;;20.05;40.05
25610;BME280;13479;49.044;8.716;2024-03-22T15:50:46;98746.31;;;20.25;39.99
25610;BME280;13479;49.044;8.716;2024-03-22T15:53:12;98741.38;;;20.35;39.01
25610;BME280;13479;49.044;8.716;2024-03-22T15:55:37;98745.31;;;20.40;38.64
25610;BME280;13479;49.044;8.716;2024-03-22T15:58:02;98741.38;;;20.35;38.84
25610;BME280;13479;49.044;8.716;2024-03-22T16:00:29;98722.91;;;20.39;40.77
25610;BME280;13479;49.044;8.716;2024-03-22T16:02:54;98728.31;;;20.46;39.76
25610;BME280;13479;49.044;8.716;2024-03-22T16:05:21;98727.06;;;20.35;39.26
25610;BME280;13479;49.044;8.716;2024-03-22T16:07:46;98718.34;;;20.26;40.06
25610;BME280;13479;49.044;8.716;2024-03-22T16:10:12;98710.25;;;20.26;40.07
25610;BME280;13479;49.044;8.716;2024-03-22T16:12:37;98717.06;;;20.22;40.33
25610;BME280;13479;49.044;8.716;2024-03-22T16:15:03;98715.81;;;20.18;39.69
25610;BME280;13479;49.044;8.716;2024-03-22T16:17:30;98708.31;;;20.06;40.12
25610;BME280;13479;49.044;8.716;2024-03-22T16:19:55;98711.63;;;20.02;39.80
25610;BME280;13479;49.044;8.716;2024-03-22T16:22:20;98704.34;;;20.02;40.32
25610;BME280;13479;49.044;8.716;2024-03-22T16:24:45;98706.38;;;19.94;41.25
25610;BME280;13479;49.044;8.716;2024-03-22T16:27:11;98713.25;;;19.96;40.29
25610;BME280;13479;49.044;8.716;2024-03-22T16:29:36;98712.44;;;20.02;40.32
25610;BME280;13479;49.044;8.716;2024-03-22T16:32:01;98713.91;;;19.98;39.56
25610;BME280;13479;49.044;8.716;2024-03-22T16:34:29;98722.75;;;19.92;39.08
25610;BME280;13479;49.044;8.716;2024-03-22T16:36:54;98713.69;;;19.65;40.03
25610;BME280;13479;49.044;8.716;2024-03-22T16:39:21;98701.00;;;19.52;40.18
25610;BME280;13479;49.044;8.716;2024-03-22T16:41:46;98699.53;;;19.21;40.69
25610;BME280;13479;49.044;8.716;2024-03-22T16:44:13;98688.56;;;19.16;40.77
25610;BME280;13479;49.044;8.716;2024-03-22T16:46:40;98687.66;;;19.08;41.19
25610;BME280;13479;49.044;8.716;2024-03-22T16:49:05;98678.97;;;18.85;41.30
25610;BME280;13479;49.044;8.716;2024-03-22T16:51:31;98676.88;;;18.80;41.84
25610;BME280;13479;49.044;8.716;2024-03-22T16:53:56;98677.19;;;18.70;42.35
25610;BME280;13479;49.044;8.716;2024-03-22T16:56:21;98682.19;;;18.73;42.14
25610;BME280;13479;49.044;8.716;2024-03-22T16:58:46;98676.94;;;18.65;42.62
25610;BME280;13479;49.044;8.716;2024-03-22T17:01:12;98675.47;;;18.62;42.89
25610;BME280;13479;49.044;8.716;2024-03-22T17:03:37;98673.06;;;18.67;42.90
25610;BME280;13479;49.044;8.716;2024-03-22T17:06:03;98669.94;;;18.71;42.84
25610;BME280;13479;49.044;8.716;2024-03-22T17:08:29;98671.03;;;18.76;42.85
25610;BME280;13479;49.044;8.716;2024-03-22T17:10:54;98661.06;;;18.70;43.04
25610;BME280;13479;49.044;8.716;2024-03-22T17:13:24;98661.38;;;18.60;43.21
25610;BME280;13479;49.044;8.716;2024-03-22T17:15:50;98663.00;;;18.55;43.37
25610;BME280;13479;49.044;8.716;2024-03-22T17:18:19;98652.66;;;18.51;43.38
25610;BME280;13479;49.044;8.716;2024-03-22T17:20:44;98649.25;;;18.43;43.37
25610;BME280;13479;49.044;8.716;2024-03-22T17:23:10;98644.81;;;18.35;43.78
25610;BME280;13479;49.044;8.716;2024-03-22T17:25:35;98642.13;;;18.35;43.71
25610;BME280;13479;49.044;8.716;2024-03-22T17:28:01;98639.19;;;18.30;43.76
25610;BME280;13479;49.044;8.716;2024-03-22T17:30:27;98644.03;;;18.19;43.81
25610;BME280;13479;49.044;8.716;2024-03-22T17:32:52;98638.06;;;18.02;44.23
25610;BME280;13479;49.044;8.716;2024-03-22T17:35:18;98638.00;;;17.96;44.42
25610;BME280;13479;49.044;8.716;2024-03-22T17:37:43;98634.59;;;17.87;44.40
25610;BME280;13479;49.044;8.716;2024-03-22T17:40:10;98637.94;;;17.74;44.57
25610;BME280;13479;49.044;8.716;2024-03-22T17:42:37;98633.44;;;17.59;44.65
25610;BME280;13479;49.044;8.716;2024-03-22T17:45:02;98633.47;;;17.44;45.17
25610;BME280;13479;49.044;8.716;2024-03-22T17:47:29;98633.84;;;17.26;45.31
25610;BME280;13479;49.044;8.716;2024-03-22T17:49:54;98627.94;;;17.16;45.47
25610;BME280;13479;49.044;8.716;2024-03-22T17:52:20;98625.50;;;17.06;45.68